Time;durP1;ratioP1;P1;durP2;ratioP2;P2;SDS_P1;SDS_P2;PMS_P1;PMS_P2;Temp;Humidity;BMP_temperature;BMP_pressure;BME280_temperature;BME280_humidity;BME280_pressure;Samples;Min_cycle;Max_cycle;Signal;HPM_P1;HPM_P2
2023/06/10 10:44:07;;;;;;;4.78;4.30;;;37.00;57.40;;;;;;5110971;27;20317;-67
2023/06/10 10:46:48;;;;;;;4.00;3.70;;;36.90;57.70;;;;;;5111057;28;20484;-68
2023/06/10 10:49:15;;;;;;;5.60;4.68;;;36.50;58.20;;;;;;5110999;27;20059;-73
2023/06/10 10:51:58;;;;;;;5.18;4.35;;;36.70;58.20;;;;;;5098425;28;20067;-68
2023/06/10 10:54:35;;;;;;;4.63;4.22;;;37.40;57.40;;;;;;5090964;28;20028;-69
2023/06/10 10:57:11;;;;;;;6.10;4.35;;;37.00;57.10;;;;;;5090595;28;20033;-67
2023/06/10 10:59:59;;;;;;;4.35;4.05;;;36.80;57.30;;;;;;5090721;28;20475;-67
2023/06/10 11:02:35;;;;;;;6.15;3.78;;;36.90;57.20;;;;;;5090692;28;20028;-67
2023/06/10 11:05:02;;;;;;;5.30;4.10;;;36.90;56.90;;;;;;5090289;28;20385;-68
2023/06/10 11:07:37;;;;;;;8.07;4.20;;;36.70;57.60;;;;;;5089703;28;20025;-67
2023/06/10 11:10:10;;;;;;;4.47;3.70;;;36.20;57.20;;;;;;5091507;28;20031;-71
2023/06/10 11:12:53;;;;;;;4.82;4.43;;;34.50;58.40;;;;;;5089109;28;20533;-70
2023/06/10 11:15:22;;;;;;;4.75;4.18;;;32.70;60.50;;;;;;5090489;28;20077;-68
2023/06/10 11:18:15;;;;;;;5.28;4.30;;;32.00;62.50;;;;;;5090221;28;20024;-69
2023/06/10 11:20:49;;;;;;;4.63;4.15;;;31.70;63.00;;;;;;5090196;28;20103;-67
2023/06/10 11:23:25;;;;;;;7.55;4.30;;;31.40;63.50;;;;;;5090652;28;20029;-66
2023/06/10 11:25:51;;;;;;;5.15;4.53;;;30.80;64.70;;;;;;5090502;28;20040;-68
2023/06/10 11:28:20;;;;;;;5.20;4.60;;;30.40;65.80;;;;;;5089468;28;20489;-66
2023/06/10 11:30:46;;;;;;;5.97;4.55;;;30.00;65.70;;;;;;5088803;28;20114;-68
2023/06/10 11:33:17;;;;;;;5.45;4.35;;;29.70;66.20;;;;;;5090633;28;20112;-68
2023/06/10 11:35:43;;;;;;;5.38;4.88;;;29.50;66.80;;;;;;5090212;28;20028;-68
2023/06/10 11:38:09;;;;;;;6.60;4.28;;;29.40;67.30;;;;;;5089265;28;20040;-68
2023/06/10 11:40:36;;;;;;;4.75;4.32;;;29.50;66.10;;;;;;5090296;28;20035;-68
2023/06/10 11:43:03;;;;;;;4.85;4.35;;;29.60;66.30;;;;;;5090948;28;20030;-68
2023/06/10 11:45:29;;;;;;;6.47;4.38;;;29.50;66.50;;;;;;5090968;28;20036;-68
2023/06/10 11:47:58;;;;;;;5.07;4.30;;;29.30;67.20;;;;;;5089333;28;20036;-68
2023/06/10 11:50:32;;;;;;;4.68;4.18;;;29.20;66.80;;;;;;5089259;28;20469;-68
2023/06/10 11:52:58;;;;;;;7.70;4.55;;;29.10;67.10;;;;;;5092317;28;20433;-69
2023/06/10 11:55:26;;;;;;;4.80;4.40;;;29.20;67.20;;;;;;5078195;28;20099;-70
2023/06/10 11:57:57;;;;;;;4.85;4.35;;;29.20;66.50;;;;;;5076676;28;20029;-70
2023/06/10 12:00:23;;;;;;;4.82;4.32;;;29.30;66.40;;;;;;5078570;28;20032;-68
2023/06/10 12:02:58;;;;;;;5.00;4.45;;;29.20;66.10;;;;;;5078751;28;20077;-69
2023/06/10 12:05:23;;;;;;;4.47;4.07;;;29.30;66.60;;;;;;5078145;28;20127;-69
2023/06/10 12:07:49;;;;;;;5.70;4.15;;;29.40;66.40;;;;;;5077633;28;20071;-67
2023/06/10 12:10:15;;;;;;;5.30;4.53;;;29.50;66.70;;;;;;5077473;28;20031;-67
2023/06/10 12:12:41;;;;;;;10.05;4.53;;;29.60;66.70;;;;;;5077313;28;20020;-68
2023/06/10 12:15:07;;;;;;;4.93;4.50;;;29.60;66.30;;;;;;5075889;28;20512;-68
2023/06/10 12:17:33;;;;;;;6.05;4.22;;;29.50;66.00;;;;;;5077780;28;20113;-68
2023/06/10 12:20:24;;;;;;;4.57;4.13;;;29.40;65.60;;;;;;5076490;28;20075;-69
2023/06/10 12:22:49;;;;;;;6.10;4.72;;;29.30;65.90;;;;;;5075273;28;20119;-69
2023/06/10 12:25:15;;;;;;;5.03;4.40;;;29.30;66.00;;;;;;5075883;28;20479;-68
2023/06/10 12:27:53;;;;;;;5.47;4.10;;;29.30;65.30;;;;;;5076127;28;20451;-67
2023/06/10 12:30:24;;;;;;;5.40;4.32;;;29.30;65.10;;;;;;5058122;28;20027;-70
2023/06/10 12:32:52;;;;;;;4.68;3.75;;;29.30;64.70;;;;;;5072152;28;20389;-70
2023/06/10 12:35:21;;;;;;;5.63;4.47;;;29.40;65.40;;;;;;5075185;28;20013;-69
2023/06/10 12:38:01;;;;;;;5.00;3.70;;;29.40;64.30;;;;;;5073483;28;20111;-69
2023/06/10 12:40:31;;;;;;;4.40;3.75;;;29.50;63.90;;;;;;5074033;28;20035;-69
2023/06/10 12:42:57;;;;;;;4.53;3.83;;;29.50;64.50;;;;;;5073359;28;20028;-68
2023/06/10 12:45:39;;;;;;;5.03;3.92;;;29.40;64.00;;;;;;5075044;28;20020;-68
2023/06/10 12:48:12;;;;;;;8.05;5.50;;;29.40;64.70;;;;;;5075047;28;20500;-66
2023/06/10 12:50:42;;;;;;;5.25;4.53;;;29.70;64.30;;;;;;5074180;28;20504;-69
2023/06/10 12:53:09;;;;;;;8.05;3.95;;;29.80;64.00;;;;;;5073725;28;20032;-70
2023/06/10 12:55:35;;;;;;;4.88;4.13;;;30.00;63.20;;;;;;5074854;28;20501;-71
2023/06/10 12:58:01;;;;;;;4.20;3.80;;;30.00;63.30;;;;;;5074992;28;20107;-72
2023/06/10 13:00:29;;;;;;;4.35;3.78;;;30.10;63.50;;;;;;5073769;28;20031;-71
2023/06/10 13:03:00;;;;;;;6.38;3.70;;;30.20;63.40;;;;;;5067236;28;20025;-71
2023/06/10 13:05:26;;;;;;;3.80;3.42;;;30.20;63.50;;;;;;5062610;28;20029;-71
2023/06/10 13:07:52;;;;;;;5.78;3.92;;;30.10;63.70;;;;;;5054996;28;20032;-69
2023/06/10 13:10:19;;;;;;;5.38;3.60;;;30.10;62.90;;;;;;5061382;28;20058;-68
2023/06/10 13:12:45;;;;;;;4.63;4.22;;;30.20;63.60;;;;;;5074269;28;20027;-68
2023/06/10 13:15:10;;;;;;;5.30;3.83;;;29.90;63.60;;;;;;5072926;28;20021;-67
2023/06/10 13:17:37;;;;;;;5.47;4.00;;;29.80;64.90;;;;;;5074703;28;20096;-67
2023/06/10 13:20:07;;;;;;;6.03;4.00;;;29.80;63.90;;;;;;5074770;28;20120;-69
2023/06/10 13:22:34;;;;;;;4.07;3.42;;;29.70;67.10;;;;;;5074574;28;20037;-70
2023/06/10 13:25:04;;;;;;;4.20;3.75;;;29.80;65.60;;;;;;5074483;28;20052;-71
2023/06/10 13:27:30;;;;;;;4.85;3.95;;;29.80;63.10;;;;;;5074155;28;20493;-71
2023/06/10 13:29:55;;;;;;;3.75;3.35;;;29.90;65.50;;;;;;5074026;28;20027;-68
2023/06/10 13:32:21;;;;;;;4.68;3.92;;;29.90;63.40;;;;;;5073898;28;20492;-68
2023/06/10 13:34:46;;;;;;;4.32;3.88;;;29.80;63.60;;;;;;5074326;28;20028;-68
2023/06/10 13:37:17;;;;;;;4.60;3.88;;;29.80;63.50;;;;;;5073792;28;20025;-67
2023/06/10 13:39:42;;;;;;;5.97;4.03;;;29.80;63.30;;;;;;5073906;28;20044;-66
2023/06/10 13:42:08;;;;;;;5.07;4.07;;;29.70;63.80;;;;;;5073512;28;20068;-66
2023/06/10 13:44:36;;;;;;;3.83;3.53;;;29.70;64.00;;;;;;5074220;28;20065;-67
2023/06/10 13:47:02;;;;;;;6.07;3.88;;;29.70;63.50;;;;;;5074731;28;20020;-67
2023/06/10 13:49:28;;;;;;;4.72;3.53;;;29.70;63.60;;;;;;5073341;28;20028;-68
2023/06/10 13:51:53;;;;;;;4.20;3.80;;;29.70;63.70;;;;;;5073571;28;20471;-67
2023/06/10 13:54:19;;;;;;;7.55;4.35;;;29.80;64.20;;;;;;5073375;28;20392;-68
2023/06/10 13:56:45;;;;;;;6.68;5.38;;;29.80;63.70;;;;;;5073677;28;20433;-67
2023/06/10 13:59:11;;;;;;;6.07;4.60;;;29.60;64.90;;;;;;5073212;28;20021;-68
2023/06/10 14:01:37;;;;;;;5.25;4.25;;;29.60;64.30;;;;;;5074677;28;20457;-68
2023/06/10 14:04:03;;;;;;;5.63;4.32;;;29.70;65.60;;;;;;5074121;28;20038;-66
2023/06/10 14:06:28;;;;;;;5.00;4.13;;;29.70;64.40;;;;;;5073561;28;20021;-64
2023/06/10 14:08:56;;;;;;;5.15;4.65;;;29.70;65.00;;;;;;5066865;28;20056;-63
2023/06/10 14:11:22;;;;;;;9.07;4.13;;;29.60;64.70;;;;;;5072983;28;20495;-68
2023/06/10 14:13:48;;;;;;;6.43;3.83;;;29.60;66.00;;;;;;5073643;28;20032;-67
2023/06/10 14:16:13;;;;;;;4.43;4.03;;;29.50;64.90;;;;;;5066808;28;20031;-66
2023/06/10 14:18:39;;;;;;;6.72;4.05;;;29.60;65.40;;;;;;5068212;28;20037;-66
2023/06/10 14:21:04;;;;;;;6.90;3.90;;;29.60;64.70;;;;;;5064817;28;20044;-66
2023/06/10 14:23:30;;;;;;;4.22;3.58;;;29.70;64.10;;;;;;5063083;28;20020;-67
2023/06/10 14:25:56;;;;;;;5.03;4.00;;;29.60;63.70;;;;;;5069298;28;20032;-67
2023/06/10 14:28:21;;;;;;;6.20;3.70;;;29.60;64.10;;;;;;5073294;28;20477;-68
2023/06/10 14:30:47;;;;;;;6.20;3.80;;;29.70;64.60;;;;;;5073437;28;20024;-67
2023/06/10 14:33:12;;;;;;;4.68;3.95;;;29.80;65.00;;;;;;5073160;28;20060;-67
2023/06/10 14:35:38;;;;;;;4.53;4.00;;;29.80;65.10;;;;;;5073259;28;20182;-67
2023/06/10 14:38:03;;;;;;;5.15;3.70;;;29.70;65.10;;;;;;5073399;28;20032;-61
2023/06/10 14:40:30;;;;;;;4.35;3.85;;;29.70;64.50;;;;;;5073098;28;20453;-63
2023/06/10 14:42:55;;;;;;;4.68;3.85;;;29.70;65.10;;;;;;5072017;28;20016;-64
2023/06/10 14:45:21;;;;;;;3.95;3.53;;;29.70;64.80;;;;;;5067888;28;20020;-62
2023/06/10 14:47:47;;;;;;;4.07;3.45;;;29.70;65.30;;;;;;5065016;28;20029;-62
2023/06/10 14:50:12;;;;;;;5.03;3.70;;;29.70;64.80;;;;;;5061588;28;20017;-63
2023/06/10 14:52:38;;;;;;;4.43;3.45;;;29.60;64.40;;;;;;5071834;28;20032;-64
2023/06/10 14:55:04;;;;;;;4.10;3.70;;;29.60;65.50;;;;;;5064810;28;20032;-63
2023/06/10 14:57:30;;;;;;;3.58;3.28;;;29.60;64.40;;;;;;5067899;28;20039;-61
2023/06/10 14:59:56;;;;;;;4.07;3.70;;;29.70;64.30;;;;;;5064535;28;20086;-60
2023/06/10 15:02:22;;;;;;;4.05;3.63;;;29.80;64.00;;;;;;5066204;28;20500;-62
2023/06/10 15:04:47;;;;;;;4.75;3.72;;;29.90;63.90;;;;;;5062099;28;20036;-65
2023/06/10 15:07:15;;;;;;;4.18;3.78;;;29.80;64.40;;;;;;5071911;28;20033;-61
2023/06/10 15:09:41;;;;;;;3.85;3.00;;;29.80;63.20;;;;;;5072642;28;20096;-64
2023/06/10 15:12:07;;;;;;;3.53;3.22;;;29.70;63.20;;;;;;5073352;28;20045;-63
2023/06/10 15:14:32;;;;;;;3.97;3.40;;;29.70;62.90;;;;;;5073470;28;20486;-62
2023/06/10 15:16:59;;;;;;;3.10;2.80;;;29.70;63.20;;;;;;5072164;28;20017;-62
2023/06/10 15:19:26;;;;;;;3.60;3.15;;;29.70;63.20;;;;;;5070318;28;20020;-66
2023/06/10 15:21:51;;;;;;;3.80;3.33;;;29.70;63.80;;;;;;5069017;28;20020;-65
2023/06/10 15:24:17;;;;;;;3.25;2.85;;;29.60;63.10;;;;;;5052876;28;20021;-65
2023/06/10 15:26:42;;;;;;;3.35;3.00;;;29.70;63.20;;;;;;5052681;28;20025;-64
2023/06/10 15:29:09;;;;;;;5.53;3.28;;;29.70;63.50;;;;;;5058880;28;20469;-64
2023/06/10 15:31:34;;;;;;;3.83;3.53;;;29.70;63.80;;;;;;5066918;28;20013;-64
2023/06/10 15:34:00;;;;;;;3.42;3.13;;;29.70;63.60;;;;;;5065886;28;20035;-67
2023/06/10 15:36:26;;;;;;;3.80;3.10;;;29.70;63.20;;;;;;5077118;28;20469;-67
2023/06/10 15:38:53;;;;;;;4.63;3.83;;;29.70;63.20;;;;;;5076832;28;20419;-69
2023/06/10 15:41:19;;;;;;;6.75;3.78;;;29.80;62.70;;;;;;5075102;28;20028;-69
2023/06/10 15:43:45;;;;;;;3.50;3.20;;;29.70;63.00;;;;;;5076688;28;20084;-69
2023/06/10 15:46:10;;;;;;;4.63;3.42;;;29.80;63.70;;;;;;5076516;28;20017;-67
2023/06/10 15:48:36;;;;;;;3.50;3.08;;;29.70;63.00;;;;;;5066194;28;20029;-66
2023/06/10 15:51:01;;;;;;;3.70;3.13;;;29.80;62.50;;;;;;5075342;28;20037;-67
2023/06/10 15:53:27;;;;;;;3.30;3.00;;;29.60;62.70;;;;;;5076973;28;20024;-66
2023/06/10 15:55:52;;;;;;;4.88;3.45;;;29.60;63.20;;;;;;5075638;28;20029;-68
2023/06/10 15:58:18;;;;;;;3.70;3.40;;;29.60;63.20;;;;;;5076480;28;20078;-66
2023/06/10 16:00:43;;;;;;;4.60;3.33;;;29.60;63.60;;;;;;5075831;28;20024;-66
2023/06/10 16:03:09;;;;;;;3.45;2.97;;;29.70;63.60;;;;;;5076026;28;20064;-66
2023/06/10 16:05:34;;;;;;;3.10;2.80;;;29.60;63.30;;;;;;5075910;28;20016;-67
2023/06/10 16:08:00;;;;;;;3.70;3.05;;;29.60;63.10;;;;;;5075999;28;20431;-67
2023/06/10 16:10:25;;;;;;;3.30;3.00;;;29.50;63.40;;;;;;5075768;28;20103;-66
2023/06/10 16:12:51;;;;;;;3.20;2.90;;;29.60;62.50;;;;;;5077157;28;20064;-66
2023/06/10 16:15:17;;;;;;;5.53;4.18;;;29.60;62.70;;;;;;5076619;28;20028;-67
2023/06/10 16:17:43;;;;;;;4.40;3.92;;;29.60;63.10;;;;;;5075813;28;20354;-66
2023/06/10 16:20:09;;;;;;;4.35;3.20;;;29.50;62.50;;;;;;5075824;28;20020;-65
2023/06/10 16:22:35;;;;;;;4.05;3.58;;;29.50;62.40;;;;;;5075567;28;20032;-66
2023/06/10 16:25:00;;;;;;;4.15;3.28;;;29.40;63.00;;;;;;5075870;28;20025;-65
2023/06/10 16:27:26;;;;;;;3.63;3.33;;;29.40;63.20;;;;;;5075951;28;20023;-67
2023/06/10 16:29:53;;;;;;;3.80;3.45;;;29.30;63.10;;;;;;5075777;28;20103;-66
2023/06/10 16:32:18;;;;;;;4.70;3.75;;;29.30;63.60;;;;;;5073289;28;20135;-67
2023/06/10 16:34:44;;;;;;;6.20;4.07;;;29.30;63.50;;;;;;5076463;28;20036;-66
2023/06/10 16:37:10;;;;;;;5.43;3.53;;;29.30;63.80;;;;;;5093573;22;20097;-65
2023/06/10 16:39:35;;;;;;;4.95;3.47;;;29.30;64.00;;;;;;5099396;28;20032;-64
2023/06/10 16:42:01;;;;;;;5.38;3.88;;;29.20;63.10;;;;;;5096680;28;20012;-64
2023/06/10 16:44:27;;;;;;;6.40;3.92;;;29.20;63.40;;;;;;5097303;28;20031;-66
2023/06/10 16:46:53;;;;;;;4.60;3.90;;;29.20;63.70;;;;;;5108605;28;20072;-66
2023/06/10 16:49:19;;;;;;;4.35;3.90;;;29.10;63.80;;;;;;5115375;27;20046;-64
2023/06/10 16:51:44;;;;;;;4.70;3.30;;;29.00;63.50;;;;;;5095943;28;20073;-63
2023/06/10 16:54:10;;;;;;;4.38;3.83;;;29.10;64.30;;;;;;5117338;27;20362;-64
2023/06/10 16:56:35;;;;;;;7.15;3.90;;;29.00;64.20;;;;;;5113336;27;20035;-63
2023/06/10 16:59:01;;;;;;;5.00;3.55;;;28.90;64.40;;;;;;5130481;27;20048;-63
2023/06/10 17:01:27;;;;;;;4.60;3.67;;;28.90;63.90;;;;;;5116177;27;20060;-63
2023/06/10 17:03:52;;;;;;;4.20;3.47;;;28.80;63.00;;;;;;5111316;27;20479;-64
2023/06/10 17:06:18;;;;;;;4.78;3.75;;;28.80;63.80;;;;;;5117097;28;20053;-64
2023/06/10 17:08:44;;;;;;;4.13;3.67;;;28.80;63.50;;;;;;5114488;28;20394;-64
2023/06/10 17:11:10;;;;;;;5.78;4.03;;;28.80;64.50;;;;;;5115746;28;20012;-64
2023/06/10 17:13:36;;;;;;;4.20;3.83;;;28.80;64.10;;;;;;5114181;28;20027;-64
2023/06/10 17:16:02;;;;;;;4.90;4.10;;;28.80;64.60;;;;;;5115796;28;20032;-64
2023/06/10 17:18:27;;;;;;;5.85;4.22;;;28.80;64.60;;;;;;5111619;28;20020;-64
2023/06/10 17:20:53;;;;;;;5.63;4.80;;;28.70;65.20;;;;;;5094845;28;20485;-64
2023/06/10 17:23:18;;;;;;;9.05;3.90;;;28.70;66.60;;;;;;5113144;27;20066;-64
2023/06/10 17:25:44;;;;;;;4.05;3.63;;;28.60;65.70;;;;;;5114500;28;20044;-64
2023/06/10 17:28:10;;;;;;;7.03;4.28;;;28.60;66.10;;;;;;5110039;28;20028;-65
2023/06/10 17:30:35;;;;;;;3.40;3.10;;;28.50;65.40;;;;;;5112529;27;20024;-66
2023/06/10 17:33:01;;;;;;;4.10;3.70;;;28.50;65.50;;;;;;5114191;28;20094;-67
2023/06/10 17:35:26;;;;;;;3.92;3.40;;;28.50;66.20;;;;;;5129073;27;20085;-65
2023/06/10 17:37:52;;;;;;;4.68;3.80;;;28.50;65.00;;;;;;5112990;28;20480;-64
2023/06/10 17:40:17;;;;;;;5.40;3.95;;;28.50;65.10;;;;;;5113463;28;20024;-66
2023/06/10 17:42:43;;;;;;;3.88;3.53;;;28.50;65.80;;;;;;5111411;28;20023;-65
2023/06/10 17:45:09;;;;;;;5.43;4.25;;;28.50;65.70;;;;;;5105142;28;20032;-66
2023/06/10 17:47:35;;;;;;;5.85;4.50;;;28.50;65.90;;;;;;5105304;27;20383;-64
2023/06/10 17:50:00;;;;;;;6.38;5.70;;;28.50;65.90;;;;;;5113058;27;20020;-65
2023/06/10 17:52:26;;;;;;;7.85;5.57;;;28.40;66.20;;;;;;5117998;27;20031;-64
2023/06/10 17:54:51;;;;;;;7.10;5.32;;;28.50;66.30;;;;;;5114461;28;20032;-63
2023/06/10 17:57:17;;;;;;;5.35;4.25;;;28.40;66.40;;;;;;5112857;28;20028;-64
2023/06/10 17:59:43;;;;;;;5.28;3.92;;;28.40;66.30;;;;;;5113855;28;20028;-65
2023/06/10 18:02:08;;;;;;;5.57;4.57;;;28.40;66.50;;;;;;5113998;28;20031;-64
2023/06/10 18:04:34;;;;;;;4.57;4.07;;;28.40;66.60;;;;;;5112705;28;20031;-64
2023/06/10 18:07:00;;;;;;;7.18;4.38;;;28.20;66.80;;;;;;5114397;28;20545;-64
2023/06/10 18:09:26;;;;;;;5.63;4.55;;;28.30;67.10;;;;;;5113670;28;20416;-65
2023/06/10 18:11:52;;;;;;;6.40;4.78;;;28.20;67.20;;;;;;5111914;28;20114;-65
2023/06/10 18:14:18;;;;;;;5.22;4.72;;;28.30;67.20;;;;;;5114063;27;20495;-65
2023/06/10 18:16:43;;;;;;;5.43;4.82;;;28.20;67.30;;;;;;5112900;28;20035;-65
2023/06/10 18:19:09;;;;;;;5.50;5.00;;;28.10;67.50;;;;;;5114172;28;20027;-65
2023/06/10 18:21:35;;;;;;;4.93;4.00;;;28.10;67.70;;;;;;5106952;28;20103;-64
2023/06/10 18:24:01;;;;;;;4.22;3.80;;;28.10;67.80;;;;;;5106122;28;20059;-64
2023/06/10 18:26:27;;;;;;;5.72;4.70;;;28.00;68.00;;;;;;5110444;28;20066;-64
2023/06/10 18:28:53;;;;;;;4.70;4.13;;;28.00;68.10;;;;;;5108095;28;20432;-64
2023/06/10 18:31:18;;;;;;;4.53;4.05;;;28.00;68.50;;;;;;5103207;28;20030;-64
2023/06/10 18:33:44;;;;;;;4.63;3.70;;;27.90;69.30;;;;;;5099854;28;20024;-64
2023/06/10 18:36:10;;;;;;;4.53;4.13;;;27.90;69.00;;;;;;5103851;28;20024;-64
2023/06/10 18:38:35;;;;;;;8.65;4.07;;;27.80;69.10;;;;;;5103902;28;20027;-65
2023/06/10 18:41:01;;;;;;;7.13;4.25;;;27.90;69.40;;;;;;5096995;28;20024;-64
2023/06/10 18:43:27;;;;;;;5.57;4.50;;;27.80;69.60;;;;;;5112208;28;20118;-64
2023/06/10 18:45:52;;;;;;;6.03;4.53;;;27.70;69.80;;;;;;5112475;28;20034;-64
2023/06/10 18:48:18;;;;;;;4.18;3.78;;;27.70;70.00;;;;;;5113685;28;20122;-63
2023/06/10 18:50:43;;;;;;;4.35;3.70;;;27.60;70.00;;;;;;5113600;28;20030;-63
2023/06/10 18:53:09;;;;;;;5.22;4.43;;;27.60;70.30;;;;;;5113446;28;20395;-64
2023/06/10 18:55:38;;;;;;;4.50;3.90;;;27.60;70.50;;;;;;5112058;28;20039;-63
2023/06/10 18:58:04;;;;;;;4.55;3.97;;;27.50;70.70;;;;;;5113479;28;20030;-63
2023/06/10 19:00:30;;;;;;;4.55;3.80;;;27.50;70.90;;;;;;5113374;28;20472;-63
2023/06/10 19:02:56;;;;;;;4.18;3.78;;;27.40;71.10;;;;;;5113184;28;20027;-64
2023/06/10 19:05:22;;;;;;;4.35;3.95;;;27.40;71.20;;;;;;5116972;28;20380;-65
2023/06/10 19:07:48;;;;;;;5.18;4.00;;;27.30;71.50;;;;;;5116614;28;20058;-65
2023/06/10 19:10:14;;;;;;;6.95;4.03;;;27.20;71.80;;;;;;5116474;28;20023;-66
2023/06/10 19:12:40;;;;;;;4.97;3.63;;;27.20;72.10;;;;;;5118647;28;20084;-66
2023/06/10 19:15:06;;;;;;;4.18;3.78;;;27.10;72.30;;;;;;5113929;28;20119;-66
2023/06/10 19:17:32;;;;;;;4.97;3.17;;;27.10;72.50;;;;;;5106400;28;20098;-67
2023/06/10 19:19:57;;;;;;;4.22;3.78;;;27.00;72.50;;;;;;5117530;28;20493;-68
2023/06/10 19:22:23;;;;;;;4.03;3.33;;;26.90;73.00;;;;;;5118870;28;20034;-65
2023/06/10 19:25:06;;;;;;;4.30;3.80;;;26.80;73.00;;;;;;5117839;28;20027;-66
2023/06/10 19:27:32;;;;;;;5.57;3.85;;;26.80;73.30;;;;;;5097117;28;20047;-66
2023/06/10 19:29:57;;;;;;;3.90;3.28;;;26.70;73.50;;;;;;5116142;28;20472;-66
2023/06/10 19:32:23;;;;;;;4.75;3.05;;;26.60;73.60;;;;;;5117454;28;20036;-66
2023/06/10 19:34:49;;;;;;;5.18;3.42;;;26.70;73.70;;;;;;5117029;28;20285;-66
2023/06/10 19:37:15;;;;;;;5.05;3.55;;;26.60;74.30;;;;;;5114835;28;20049;-66
2023/06/10 19:39:40;;;;;;;5.82;3.40;;;26.50;74.00;;;;;;5117477;28;20070;-67
2023/06/10 19:42:06;;;;;;;;;;;26.50;74.40;;;;;;5117359;28;20026;-66
2023/06/10 19:44:32;;;;;;;4.10;3.70;;;26.40;74.90;;;;;;5116884;28;19912;-68
2023/06/10 19:46:57;;;;;;;6.03;3.28;;;26.40;75.20;;;;;;5116736;28;20532;-67
2023/06/10 19:49:23;;;;;;;;;;;26.30;75.40;;;;;;5117616;28;20106;-67
2023/06/10 19:51:50;;;;;;;4.40;3.70;;;26.30;75.80;;;;;;5117053;28;19910;-68
2023/06/10 19:54:16;;;;;;;6.10;3.72;;;26.20;76.10;;;;;;5119258;28;20019;-68
2023/06/10 19:56:42;;;;;;;;;;;26.20;76.60;;;;;;5119303;28;20023;-68
2023/06/10 19:59:07;;;;;;;4.15;3.72;;;26.00;77.10;;;;;;5118241;28;19943;-67
2023/06/10 20:01:32;;;;;;;;;;;26.00;77.50;;;;;;5118014;28;20028;-68
2023/06/10 20:03:58;;;;;;;4.60;3.63;;;25.90;77.70;;;;;;5116679;28;19915;-70
2023/06/10 20:06:23;;;;;;;;;;;25.80;77.90;;;;;;5117453;28;20035;-66
2023/06/10 20:08:49;;;;;;;5.45;3.83;;;25.80;78.30;;;;;;5117154;28;19908;-66
2023/06/10 20:11:15;;;;;;;5.72;4.10;;;25.70;78.50;;;;;;5114879;28;20047;-67
2023/06/10 20:13:40;;;;;;;5.07;3.78;;;25.60;78.90;;;;;;5117332;28;20031;-66
2023/06/10 20:16:06;;;;;;;;;;;25.60;79.20;;;;;;5116751;28;20414;-65
2023/06/10 20:18:31;;;;;;;5.05;3.65;;;25.50;79.30;;;;;;5115082;28;19908;-67
2023/06/10 20:20:57;;;;;;;5.10;4.22;;;25.60;79.70;;;;;;5115499;28;20032;-67
2023/06/10 20:23:23;;;;;;;5.70;4.38;;;25.50;79.70;;;;;;5113847;28;20372;-67
2023/06/10 20:25:48;;;;;;;;;;;25.40;80.00;;;;;;5117244;28;20034;-67
2023/06/10 20:28:14;;;;;;;8.00;4.32;;;25.40;80.30;;;;;;5114791;28;20286;-66
2023/06/10 20:30:40;;;;;;;;;;;25.40;80.50;;;;;;5116618;28;20035;-67
2023/06/10 20:33:07;;;;;;;5.28;4.05;;;25.30;80.80;;;;;;5116152;28;20382;-67
2023/06/10 20:35:32;;;;;;;6.40;4.75;;;25.30;81.00;;;;;;5116272;28;20092;-65
2023/06/10 20:37:58;;;;;;;;;;;25.20;81.30;;;;;;5116180;28;20043;-67
2023/06/10 20:40:23;;;;;;;6.85;5.32;;;25.20;81.60;;;;;;5108627;28;19954;-67
2023/06/10 20:42:49;;;;;;;;;;;25.10;81.80;;;;;;5115325;28;20518;-66
2023/06/10 20:45:15;;;;;;;4.97;4.20;;;25.10;82.10;;;;;;5125802;28;19910;-68
2023/06/10 20:47:40;;;;;;;;;;;25.10;82.20;;;;;;5128449;28;20418;-69
2023/06/10 20:50:06;;;;;;;6.22;4.75;;;25.00;82.30;;;;;;5123440;28;19911;-67
2023/06/10 20:52:31;;;;;;;;;;;25.00;82.60;;;;;;5121419;28;20098;-66
2023/06/10 20:54:57;;;;;;;5.53;4.75;;;24.90;82.90;;;;;;5117345;28;19953;-67
2023/06/10 20:57:23;;;;;;;;;;;24.90;83.00;;;;;;5115935;28;20114;-67
2023/06/10 20:59:49;;;;;;;5.10;4.60;;;24.90;83.10;;;;;;5116140;28;19965;-66
2023/06/10 21:02:15;;;;;;;4.95;4.38;;;24.80;83.20;;;;;;5116205;28;20034;-67
2023/06/10 21:04:40;;;;;;;;;;;24.80;83.40;;;;;;5116846;28;20024;-68
2023/06/10 21:07:07;;;;;;;7.57;4.68;;;24.80;83.60;;;;;;5111507;28;20398;-68
2023/06/10 21:09:32;;;;;;;5.45;4.70;;;24.70;83.70;;;;;;5095349;28;20047;-68
2023/06/10 21:11:58;;;;;;;;;;;24.70;83.90;;;;;;5112757;28;20020;-68
2023/06/10 21:14:23;;;;;;;4.85;4.40;;;24.70;83.80;;;;;;5112930;28;19904;-68
2023/06/10 21:16:49;;;;;;;;;;;24.60;83.70;;;;;;5111064;28;20127;-67
2023/06/10 21:19:14;;;;;;;5.10;4.60;;;24.60;83.60;;;;;;5108730;28;19911;-68
2023/06/10 21:21:39;;;;;;;;;;;24.60;83.50;;;;;;5110379;28;20035;-68
2023/06/10 21:24:06;;;;;;;4.72;4.28;;;24.60;83.40;;;;;;5103608;28;19908;-68
2023/06/10 21:26:34;;;;;;;5.45;4.45;;;24.60;83.60;;;;;;5105494;28;20099;-67
2023/06/10 21:29:00;;;;;;;5.40;4.88;;;24.50;83.70;;;;;;5103058;28;20026;-68
